createdAt,value
2023-04-02T00:01:06.520Z,89.65
2023-04-02T00:04:00.784Z,90.15
2023-04-02T00:06:30.477Z,89.94
2023-04-02T00:09:01.306Z,89.16
2023-04-02T00:11:34.512Z,89.48
2023-04-02T00:14:02.746Z,89.44
2023-04-02T00:16:29.919Z,89.40
2023-04-02T00:19:02.773Z,88.86
2023-04-02T00:21:32.993Z,89.17
2023-04-02T00:24:01.605Z,89.02
2023-04-02T00:26:33.121Z,89.18
2023-04-02T00:29:02.407Z,89.41
2023-04-02T00:31:29.894Z,89.47
2023-04-02T00:33:58.222Z,88.87
2023-04-02T00:36:26.656Z,88.98
2023-04-02T00:39:03.176Z,89.12
2023-04-02T00:41:36.179Z,88.94
2023-04-02T00:44:03.523Z,89.10
2023-04-02T00:46:47.283Z,88.77
2023-04-02T00:49:38.142Z,88.64
2023-04-02T00:52:09.501Z,88.67
2023-04-02T00:54:43.977Z,88.82
2023-04-02T00:57:18.073Z,88.14
2023-04-02T01:00:19.917Z,88.89
2023-04-02T01:03:18.387Z,88.27
2023-04-02T01:06:01.648Z,88.48
2023-04-02T01:08:43.010Z,88.62
2023-04-02T01:11:20.683Z,87.95
2023-04-02T01:14:13.708Z,88.54
2023-04-02T01:16:50.528Z,88.87
2023-04-02T01:19:35.635Z,88.19
2023-04-02T01:22:12.070Z,88.41
2023-04-02T01:24:38.942Z,87.90
2023-04-02T01:27:14.448Z,87.76
2023-04-02T01:29:48.662Z,87.64
2023-04-02T01:32:19.763Z,87.77
2023-04-02T01:35:01.599Z,87.95
2023-04-02T01:37:49.632Z,88.07
2023-04-02T01:40:51.524Z,87.96
2023-04-02T01:43:27.114Z,87.47
2023-04-02T01:45:53.872Z,88.24
2023-04-02T01:48:27.448Z,87.87
2023-04-02T01:50:56.949Z,87.30
2023-04-02T01:53:27.143Z,86.97
2023-04-02T01:55:57.909Z,86.97
2023-04-02T01:58:27.248Z,86.58
2023-04-02T02:01:04.219Z,86.77
2023-04-02T02:03:31.299Z,86.55
2023-04-02T02:05:59.428Z,87.23
2023-04-02T02:08:30.042Z,86.68
2023-04-02T02:10:57.140Z,86.87
2023-04-02T02:13:23.796Z,87.05
2023-04-02T02:15:50.871Z,86.74
2023-04-02T02:18:23.525Z,86.72
2023-04-02T02:20:52.015Z,86.92
2023-04-02T02:23:20.016Z,86.60
2023-04-02T02:25:49.058Z,86.30
2023-04-02T02:28:21.531Z,86.54
2023-04-02T02:30:50.959Z,86.52
2023-04-02T02:33:25.488Z,86.98
2023-04-02T02:36:11.953Z,86.76
2023-04-02T02:38:58.102Z,87.15
2023-04-02T02:41:35.443Z,86.62
2023-04-02T02:44:16.084Z,85.91
2023-04-02T02:47:00.228Z,85.86
2023-04-02T02:49:31.921Z,86.55
2023-04-02T02:52:07.709Z,86.52
2023-04-02T02:54:37.039Z,86.12
2023-04-02T02:57:08.625Z,86.37
2023-04-02T02:59:36.242Z,86.15
2023-04-02T03:02:05.407Z,87.00
2023-04-02T03:04:37.450Z,86.64
2023-04-02T03:07:06.667Z,86.43
2023-04-02T03:09:39.351Z,85.90
2023-04-02T03:12:27.610Z,86.00
2023-04-02T03:15:13.649Z,85.19
2023-04-02T03:17:54.218Z,85.88
2023-04-02T03:20:32.567Z,85.69
2023-04-02T03:23:22.169Z,85.07
2023-04-02T03:25:59.363Z,84.95
2023-04-02T03:28:33.165Z,85.30
2023-04-02T03:31:08.584Z,85.01
2023-04-02T03:33:43.168Z,85.22
2023-04-02T03:36:28.582Z,85.25
2023-04-02T03:39:15.027Z,85.06
2023-04-02T03:41:47.916Z,84.56
2023-04-02T03:44:31.150Z,84.72
2023-04-02T03:47:03.987Z,84.86
2023-04-02T03:49:38.433Z,84.42
2023-04-02T03:52:09.466Z,84.02
2023-04-02T03:54:40.908Z,84.21
2023-04-02T03:57:36.931Z,84.37
2023-04-02T04:00:14.427Z,84.03
2023-04-02T04:02:46.393Z,83.94
2023-04-02T04:05:29.219Z,83.89
2023-04-02T04:08:02.440Z,83.49
2023-04-02T04:10:29.941Z,83.42
2023-04-02T04:13:04.242Z,83.22
2023-04-02T04:15:42.126Z,83.43
2023-04-02T04:18:24.372Z,83.09
2023-04-02T04:21:03.507Z,82.94
2023-04-02T04:23:37.209Z,83.10
2023-04-02T04:26:19.553Z,81.87
2023-04-02T04:29:06.388Z,81.87
2023-04-02T04:31:46.933Z,82.22
2023-04-02T04:34:19.134Z,82.02
2023-04-02T04:36:55.232Z,82.27
2023-04-02T04:39:41.611Z,82.53
2023-04-02T04:42:18.196Z,81.94
2023-04-02T04:47:38.812Z,81.53
2023-04-02T04:50:09.318Z,81.97
2023-04-02T04:52:38.652Z,81.99
2023-04-02T04:55:35.033Z,81.00
2023-04-02T04:58:16.892Z,80.90
2023-04-02T05:00:55.338Z,80.40
2023-04-02T05:03:33.367Z,81.30
2023-04-02T05:06:05.903Z,81.07
2023-04-02T05:08:36.919Z,81.29
2023-04-02T05:11:13.845Z,81.01
2023-04-02T05:13:54.798Z,80.66
2023-04-02T05:16:39.046Z,80.64
2023-04-02T05:19:09.731Z,80.54
2023-04-02T05:21:47.414Z,80.05
2023-04-02T05:24:51.427Z,79.80
2023-04-02T05:27:28.734Z,79.42
2023-04-02T05:30:05.066Z,79.06
2023-04-02T05:32:36.048Z,78.76
2023-04-02T05:35:06.561Z,78.93
2023-04-02T05:37:33.895Z,78.88
2023-04-02T05:40:13.573Z,78.71
2023-04-02T05:42:47.626Z,78.35
2023-04-02T05:45:24.625Z,78.86
2023-04-02T05:47:57.357Z,78.28
2023-04-02T05:50:38.319Z,78.28
2023-04-02T05:53:23.090Z,78.46
2023-04-02T05:55:59.808Z,77.96
2023-04-02T05:58:37.345Z,77.15
2023-04-02T06:01:17.814Z,77.46
2023-04-02T06:03:51.817Z,76.92
2023-04-02T06:06:42.632Z,77.27
2023-04-02T06:09:18.613Z,77.68
2023-04-02T06:11:50.329Z,77.46
2023-04-02T06:14:17.711Z,77.24
2023-04-02T06:16:46.368Z,78.06
2023-04-02T06:19:21.253Z,77.94
2023-04-02T06:21:51.437Z,78.54
2023-04-02T06:24:24.352Z,77.81
2023-04-02T06:26:58.056Z,77.39
2023-04-02T06:29:34.007Z,76.99
2023-04-02T06:32:02.172Z,77.46
2023-04-02T06:34:30.870Z,77.73
2023-04-02T06:37:02.528Z,77.32
2023-04-02T06:39:29.710Z,77.20
2023-04-02T06:42:11.912Z,77.51
2023-04-02T06:44:38.532Z,76.84
2023-04-02T06:47:18.452Z,77.23
2023-04-02T06:49:51.323Z,77.51
2023-04-02T06:52:30.097Z,77.84
2023-04-02T06:54:57.868Z,76.86
2023-04-02T06:57:25.746Z,76.68
2023-04-02T06:59:53.415Z,76.16
2023-04-02T07:02:29.132Z,77.09
2023-04-02T07:05:04.300Z,76.95
2023-04-02T07:07:31.573Z,76.97
2023-04-02T07:09:58.145Z,76.89
2023-04-02T07:12:26.722Z,77.06
2023-04-02T07:14:54.644Z,77.52
2023-04-02T07:17:22.828Z,76.88
2023-04-02T07:19:49.771Z,77.19
2023-04-02T07:22:17.824Z,77.54
2023-04-02T07:24:45.871Z,77.66
2023-04-02T07:27:14.277Z,77.74
2023-04-02T07:29:43.008Z,77.43
2023-04-02T07:32:12.415Z,77.08
2023-04-02T07:34:48.964Z,77.09
2023-04-02T07:37:16.544Z,76.80
2023-04-02T07:39:50.727Z,76.71
2023-04-02T07:42:17.382Z,76.57
2023-04-02T07:44:44.140Z,76.71
2023-04-02T07:47:11.032Z,76.44
2023-04-02T07:49:37.593Z,76.62
2023-04-02T07:52:05.086Z,77.01
2023-04-02T07:54:31.719Z,76.43
2023-04-02T07:56:58.365Z,76.62
2023-04-02T08:02:23.008Z,76.80
2023-04-02T08:04:52.841Z,76.61
2023-04-02T08:07:19.450Z,76.25
2023-04-02T08:09:46.017Z,76.07
2023-04-02T08:12:15.905Z,77.15
2023-04-02T08:14:43.320Z,77.20
2023-04-02T08:17:10.052Z,76.37
2023-04-02T08:19:51.770Z,77.16
2023-04-02T08:22:27.828Z,75.92
2023-04-02T08:24:55.093Z,76.20
2023-04-02T08:27:22.102Z,76.25
2023-04-02T08:29:48.821Z,76.16
2023-04-02T08:32:16.310Z,75.25
2023-04-02T08:34:45.136Z,75.53
2023-04-02T08:37:31.111Z,74.58
2023-04-02T08:43:07.685Z,74.75
2023-04-02T08:49:02.778Z,74.20
2023-04-02T08:51:34.968Z,75.45
2023-04-02T08:54:14.708Z,75.09
2023-04-02T08:56:49.474Z,74.59
2023-04-02T08:59:23.129Z,73.89
2023-04-02T09:01:56.516Z,73.02
2023-04-02T09:04:25.171Z,73.53
2023-04-02T09:06:55.073Z,74.63
2023-04-02T09:09:23.174Z,73.96
2023-04-02T09:11:55.460Z,73.73
2023-04-02T09:14:41.332Z,73.91
2023-04-02T09:17:23.300Z,73.88
2023-04-02T09:20:00.951Z,73.20
2023-04-02T09:22:31.639Z,72.65
2023-04-02T09:25:01.219Z,72.06
2023-04-02T09:27:30.663Z,72.42
2023-04-02T09:30:18.389Z,72.48
2023-04-02T09:32:50.547Z,71.79
2023-04-02T09:35:26.645Z,71.89
2023-04-02T09:38:09.073Z,71.75
2023-04-02T09:40:52.364Z,71.14
2023-04-02T09:43:26.567Z,71.52
2023-04-02T09:46:02.555Z,71.36
2023-04-02T09:48:37.898Z,70.42
2023-04-02T09:51:06.742Z,71.06
2023-04-02T09:53:37.284Z,70.25
2023-04-02T09:56:24.055Z,70.54
2023-04-02T09:59:06.432Z,69.40
2023-04-02T10:01:37.629Z,69.66
2023-04-02T10:04:06.706Z,68.90
2023-04-02T10:06:34.466Z,67.60
2023-04-02T10:09:29.403Z,68.71
2023-04-02T10:11:57.494Z,68.53
2023-04-02T10:14:29.255Z,67.97
2023-04-02T10:17:01.277Z,67.71
2023-04-02T10:19:34.590Z,67.47
2023-04-02T10:22:05.562Z,67.65
2023-04-02T10:24:32.219Z,67.60
2023-04-02T10:27:22.911Z,66.60
2023-04-02T10:30:06.542Z,66.09
2023-04-02T10:32:42.428Z,65.35
2023-04-02T10:35:19.523Z,64.61
2023-04-02T10:37:46.333Z,64.90
2023-04-02T10:40:27.057Z,64.52
2023-04-02T10:43:28.350Z,64.73
2023-04-02T10:46:02.930Z,63.66
2023-04-02T10:48:52.776Z,62.38
2023-04-02T10:51:46.307Z,61.75
2023-04-02T10:54:18.864Z,60.80
2023-04-02T10:56:51.183Z,60.83
2023-04-02T10:59:23.640Z,61.18
2023-04-02T11:01:52.646Z,61.14
2023-04-02T11:04:27.597Z,61.22
2023-04-02T11:07:03.885Z,62.11
2023-04-02T11:09:43.790Z,61.14
2023-04-02T11:12:23.395Z,60.06
2023-04-02T11:14:51.609Z,59.75
2023-04-02T11:17:20.520Z,59.13
2023-04-02T11:19:47.453Z,59.06
2023-04-02T11:22:18.235Z,60.46
2023-04-02T11:24:49.740Z,60.11
2023-04-02T11:27:22.775Z,60.95
2023-04-02T11:29:55.610Z,60.38
2023-04-02T11:32:22.163Z,60.36
2023-04-02T11:34:53.821Z,59.08
2023-04-02T11:37:44.603Z,60.87
2023-04-02T11:40:12.246Z,59.08
2023-04-02T11:42:40.928Z,58.88
2023-04-02T11:45:21.887Z,60.33
2023-04-02T11:48:02.318Z,59.89
2023-04-02T11:50:31.937Z,59.33
2023-04-02T11:53:05.139Z,60.13
2023-04-02T11:55:34.327Z,59.68
2023-04-02T11:58:10.162Z,58.37
2023-04-02T12:01:17.616Z,58.06
2023-04-02T12:03:51.638Z,58.70
2023-04-02T12:06:39.969Z,59.20
2023-04-02T12:09:17.143Z,58.55
2023-04-02T12:11:44.855Z,58.61
2023-04-02T12:14:30.127Z,58.61
2023-04-02T12:16:57.958Z,58.30
2023-04-02T12:19:26.013Z,57.46
2023-04-02T12:21:53.660Z,57.14
2023-04-02T12:24:23.385Z,56.17
2023-04-02T12:27:08.571Z,57.61
2023-04-02T12:29:36.305Z,55.28
2023-04-02T12:32:04.053Z,56.32
2023-04-02T12:34:31.119Z,57.00
2023-04-02T12:37:00.255Z,57.13
2023-04-02T12:39:28.469Z,55.74
2023-04-02T12:41:55.939Z,55.22
2023-04-02T12:44:25.761Z,56.74
2023-04-02T12:46:52.806Z,57.40
2023-04-02T12:49:30.813Z,55.06
2023-04-02T12:51:58.112Z,58.42
2023-04-02T12:54:24.776Z,56.16
2023-04-02T12:56:51.759Z,56.17
2023-04-02T12:59:36.344Z,55.10
2023-04-02T13:02:17.071Z,54.77
2023-04-02T13:04:49.152Z,56.44
2023-04-02T13:07:18.346Z,55.33
2023-04-02T13:09:49.282Z,55.97
2023-04-02T13:12:24.886Z,54.70
2023-04-02T13:14:56.592Z,56.41
2023-04-02T13:17:40.607Z,55.38
2023-04-02T13:20:27.828Z,55.92
2023-04-02T13:22:54.414Z,55.64
2023-04-02T13:25:30.881Z,54.52
2023-04-02T13:27:58.144Z,55.26
2023-04-02T13:30:27.506Z,54.85
2023-04-02T13:33:18.992Z,53.68
2023-04-02T13:36:15.505Z,53.50
2023-04-02T13:38:42.521Z,52.43
2023-04-02T13:41:23.199Z,52.63
2023-04-02T13:43:51.348Z,54.62
2023-04-02T13:46:22.554Z,54.72
2023-04-02T13:48:51.401Z,53.90
2023-04-02T13:51:19.930Z,52.56
2023-04-02T13:53:52.438Z,53.71
2023-04-02T13:56:19.757Z,53.00
2023-04-02T13:58:46.728Z,53.92
2023-04-02T14:01:17.326Z,53.13
2023-04-02T19:36:12.994Z,65.08
2023-04-02T19:43:22.907Z,65.77
2023-04-02T20:08:09.530Z,64.71
2023-04-02T20:20:09.628Z,64.35
2023-04-02T20:39:38.211Z,64.07
2023-04-02T20:42:13.410Z,63.94
2023-04-02T20:52:13.449Z,63.85
2023-04-02T21:05:35.518Z,64.00
2023-04-02T21:09:25.504Z,63.56
2023-04-02T21:12:02.337Z,63.91
2023-04-02T21:20:43.782Z,63.43
2023-04-02T21:23:12.145Z,64.00
2023-04-02T21:29:29.013Z,63.81
2023-04-02T21:34:44.938Z,64.13
2023-04-02T21:37:54.221Z,64.36
2023-04-02T21:43:25.991Z,64.23
2023-04-02T21:49:01.366Z,64.22
2023-04-02T21:51:55.878Z,64.39
2023-04-02T21:54:46.919Z,64.35
2023-04-02T21:57:26.901Z,64.63
2023-04-02T21:59:57.389Z,64.55
2023-04-02T22:05:13.108Z,64.41
2023-04-02T22:08:01.052Z,64.77
2023-04-02T22:10:47.965Z,64.63
2023-04-02T22:13:16.315Z,64.26
2023-04-02T22:16:12.833Z,65.27
2023-04-02T22:18:47.404Z,65.32
2023-04-02T22:21:24.030Z,65.44
2023-04-02T22:23:52.906Z,64.91
2023-04-02T22:26:39.324Z,65.63
2023-04-02T22:29:06.163Z,66.22
2023-04-02T22:31:35.652Z,66.69
2023-04-02T22:34:05.167Z,66.56
2023-04-02T22:36:32.212Z,66.23
2023-04-02T22:38:59.995Z,66.84
2023-04-02T22:41:29.045Z,66.48
2023-04-02T22:43:57.309Z,66.75
2023-04-02T22:46:39.308Z,65.85
2023-04-02T22:49:07.408Z,65.80
2023-04-02T22:51:37.294Z,66.70
2023-04-02T22:57:05.305Z,66.63
2023-04-02T22:59:32.020Z,67.43
2023-04-02T23:02:00.320Z,67.45
2023-04-02T23:04:27.214Z,67.91
2023-04-02T23:06:54.899Z,68.03
2023-04-02T23:09:21.559Z,68.15
2023-04-02T23:11:48.383Z,67.69
2023-04-02T23:14:15.125Z,67.74
2023-04-02T23:16:41.808Z,68.29
2023-04-02T23:19:08.567Z,68.87
2023-04-02T23:21:35.395Z,67.93
2023-04-02T23:24:06.616Z,67.96
2023-04-02T23:26:39.464Z,68.43
2023-04-02T23:29:06.607Z,68.12
2023-04-02T23:31:40.668Z,68.13
2023-04-02T23:34:07.384Z,67.78
2023-04-02T23:36:35.034Z,67.51
2023-04-02T23:39:07.983Z,67.85
2023-04-02T23:41:37.023Z,67.43
2023-04-02T23:44:04.884Z,68.27
2023-04-02T23:46:32.456Z,67.47
2023-04-02T23:49:00.225Z,67.17
2023-04-02T23:51:28.718Z,68.01
2023-04-02T23:53:55.604Z,67.49
2023-04-02T23:56:25.117Z,67.65
2023-04-02T23:58:52.133Z,67.13
